Time;durP1;ratioP1;P1;durP2;ratioP2;P2;SDS_P1;SDS_P2;PMS_P1;PMS_P2;Temp;Humidity;BMP_temperature;BMP_pressure;BME280_temperature;BME280_humidity;BME280_pressure;Samples;Min_cycle;Max_cycle;Signal;HPM_P1;HPM_P2
2022/11/29 00:01:06;;;;;;;;;;;8.30;99.90;;;;;;5010802;28;19926;-73
2022/11/29 00:03:32;;;;;;;;;;;8.30;99.90;;;;;;4945383;28;207441;-73
2022/11/29 00:06:06;;;;;;;;;;;8.30;99.90;;;;;;5007232;28;19930;-73
2022/11/29 00:08:32;;;;;;;;;;;8.40;99.90;;;;;;4939697;28;223487;-73
2022/11/29 00:11:05;;;;;;;;;;;8.30;99.90;;;;;;4966100;28;19934;-71
2022/11/29 00:13:31;;;;;;;;;;;8.40;99.90;;;;;;4975257;28;164757;-73
2022/11/29 00:16:04;;;;;;;;;;;8.30;99.90;;;;;;4991901;28;20395;-72
2022/11/29 00:18:30;;;;;;;;;;;8.30;99.90;;;;;;4966493;28;175382;-72
2022/11/29 00:20:56;;;;;;;;;;;8.40;99.90;;;;;;5008780;28;19922;-72
2022/11/29 00:23:22;;;;;;;;;;;8.40;99.90;;;;;;4953573;28;210841;-73
2022/11/29 00:25:48;;;;;;;;;;;8.40;99.90;;;;;;4960243;28;19937;-73
2022/11/29 00:28:14;;;;;;;;;;;8.40;99.90;;;;;;4963551;28;188431;-72
2022/11/29 00:30:40;;;;;;;;;;;8.40;99.90;;;;;;4970545;28;20395;-72
2022/11/29 00:33:06;;;;;;;;;;;8.30;99.90;;;;;;4953303;28;207720;-73
2022/11/29 00:35:32;;;;;;;;;;;8.40;99.90;;;;;;4977708;28;19933;-72
2022/11/29 00:37:58;;;;;;;;;;;8.30;99.90;;;;;;4949409;28;218823;-72
2022/11/29 00:40:23;;;;;;;;;;;8.30;99.90;;;;;;4976025;28;20314;-72
2022/11/29 00:42:49;;;;;;;;;;;8.30;99.90;;;;;;4952974;28;193894;-73
2022/11/29 00:45:15;;;;;;;;;;;8.40;99.90;;;;;;5009241;28;19921;-72
2022/11/29 00:47:41;;;;;;;;;;;8.30;99.90;;;;;;4971339;28;167786;-72
2022/11/29 00:50:08;;;;;;;;;;;8.40;99.90;;;;;;5012867;28;19929;-71
2022/11/29 00:52:34;;;;;;;;;;;8.30;99.90;;;;;;4956607;28;197271;-72
2022/11/29 00:55:00;;;;;;;;;;;8.30;99.90;;;;;;5010192;28;20012;-73
2022/11/29 00:57:25;;;;;;;;;;;8.30;99.90;;;;;;4967650;28;193501;-74
2022/11/29 00:59:51;;;;;;;;;;;8.30;99.90;;;;;;4986644;28;20005;-73
2022/11/29 01:02:17;;;;;;;;;;;8.30;99.90;;;;;;4954396;28;206893;-73
2022/11/29 01:04:43;;;;;;;;;;;8.30;99.90;;;;;;5013401;28;19933;-73
2022/11/29 01:07:09;;;;;;;;;;;8.30;99.90;;;;;;4933029;28;210369;-72
2022/11/29 01:09:35;;;;;;;;;;;8.30;99.90;;;;;;4963308;28;19929;-73
2022/11/29 01:12:01;;;;;;;;;;;8.20;99.90;;;;;;4937092;28;158231;-72
2022/11/29 01:14:27;;;;;;;;;;;8.20;99.90;;;;;;4962875;28;19926;-73
2022/11/29 01:16:53;;;;;;;;;;;8.20;99.90;;;;;;4930326;28;212590;-73
2022/11/29 01:19:19;;;;;;;;;;;8.20;99.90;;;;;;4981651;28;19930;-71
2022/11/29 01:21:45;;;;;;;;;;;8.20;99.90;;;;;;4962154;28;201301;-72
2022/11/29 01:24:10;;;;;;;;;;;8.20;99.90;;;;;;5000027;28;20362;-72
2022/11/29 01:26:36;;;;;;;;;;;8.20;99.90;;;;;;4958712;28;215184;-72
2022/11/29 01:29:02;;;;;;;;;;;8.10;99.90;;;;;;4999433;28;20017;-73
2022/11/29 01:31:30;;;;;;;;;;;8.20;99.90;;;;;;4925416;28;205888;-73
2022/11/29 01:33:57;;;;;;;;;;;8.20;99.90;;;;;;5015118;28;19922;-73
2022/11/29 01:36:25;;;;;;;;;;;8.10;99.90;;;;;;4956248;28;227560;-73
2022/11/29 01:38:51;;;;;;;;;;;8.10;99.90;;;;;;5024900;28;19922;-72
2022/11/29 01:41:24;;;;;;;;;;;8.10;99.90;;;;;;4952400;28;207725;-72
2022/11/29 01:43:54;;;;;;;;;;;8.10;99.90;;;;;;4999149;28;19930;-72
2022/11/29 01:46:20;;;;;;;;;;;8.10;99.90;;;;;;4954845;28;205766;-73
2022/11/29 01:48:46;;;;;;;;;;;8.00;99.90;;;;;;4955587;28;19933;-71
2022/11/29 01:51:13;;;;;;;;;;;8.00;99.90;;;;;;4953666;28;221480;-73
2022/11/29 01:53:40;;;;;;;;;;;8.10;99.90;;;;;;4970593;28;73442;-72
2022/11/29 01:56:06;;;;;;;;;;;8.00;99.90;;;;;;4977011;28;19961;-72
2022/11/29 01:58:33;;;;;;;;;;;8.00;99.90;;;;;;4946167;28;162843;-74
2022/11/29 02:00:59;;;;;;;;;;;8.00;99.90;;;;;;5007314;28;20426;-72
2022/11/29 02:03:25;;;;;;;;;;;7.90;99.90;;;;;;4963585;28;153696;-72
2022/11/29 02:05:52;;;;;;;;;;;7.90;99.90;;;;;;5006691;28;19923;-73
2022/11/29 02:08:26;;;;;;;;;;;7.90;99.90;;;;;;4979742;28;201661;-72
2022/11/29 02:10:52;;;;;;;;;;;7.90;99.90;;;;;;5001452;28;19925;-72
2022/11/29 02:13:24;;;;;;;;;;;7.90;99.90;;;;;;4958172;28;207520;-73
2022/11/29 02:15:58;;;;;;;;;;;7.90;99.90;;;;;;5003171;28;19941;-73
2022/11/29 02:18:44;;;;;;;;;;;7.90;99.90;;;;;;4944809;28;214765;-72
2022/11/29 02:21:22;;;;;;;;;;;7.90;99.90;;;;;;4967771;28;19922;-72
2022/11/29 02:24:04;;;;;;;;;;;7.80;99.90;;;;;;4940861;28;205876;-73
2022/11/29 02:26:45;;;;;;;;;;;7.90;99.90;;;;;;4955197;28;209272;-72
2022/11/29 02:29:23;;;;;;;;;;;7.80;99.90;;;;;;4995214;28;19922;-72
2022/11/29 02:31:52;;;;;;;;;;;7.80;99.90;;;;;;4938713;28;210154;-72
2022/11/29 02:34:34;;;;;;;;;;;7.70;99.90;;;;;;5007775;28;20307;-72
2022/11/29 02:37:18;;;;;;;;;;;7.70;99.90;;;;;;4929496;28;207638;-72
2022/11/29 02:39:53;;;;;;;;;;;7.70;99.90;;;;;;4960512;28;19922;-72
2022/11/29 02:42:30;;;;;;;;;;;7.70;99.90;;;;;;4923404;28;213983;-72
2022/11/29 02:45:19;;;;;;;;;;;7.70;99.90;;;;;;4957289;28;19961;-72
2022/11/29 02:48:04;;;;;;;;;;;7.60;99.90;;;;;;4875631;29;151557;-73
2022/11/29 02:50:48;;;;;;;;;;;7.70;99.90;;;;;;4918500;29;19931;-72
2022/11/29 02:53:17;;;;;;;;;;;7.60;99.90;;;;;;4872013;29;207417;-73
2022/11/29 02:55:54;;;;;;;;;;;7.70;99.90;;;;;;4901221;29;19935;-72
2022/11/29 02:58:32;;;;;;;;;;;7.70;99.90;;;;;;4883753;28;206424;-73
2022/11/29 03:01:06;;;;;;;;;;;7.70;99.90;;;;;;4939582;29;20348;-73
2022/11/29 03:03:38;;;;;;;;;;;7.70;99.90;;;;;;4859174;29;211819;-75
2022/11/29 03:06:19;;;;;;;;;;;7.70;99.90;;;;;;4934584;28;19931;-72
2022/11/29 03:08:51;;;;;;;;;;;7.60;99.90;;;;;;4856081;29;170102;-73
2022/11/29 03:11:20;;;;;;;;;;;7.60;99.90;;;;;;4916690;29;186407;-73
2022/11/29 03:13:52;;;;;;;;;;;7.60;99.90;;;;;;4899828;29;19923;-73
2022/11/29 03:16:33;;;;;;;;;;;7.60;99.90;;;;;;4892202;29;195670;-73
2022/11/29 03:19:04;;;;;;;;;;;7.60;99.90;;;;;;4883793;29;19938;-73
2022/11/29 03:21:30;;;;;;;;;;;7.60;99.90;;;;;;4850834;29;214574;-73
2022/11/29 03:23:58;;;;;;;;;;;7.60;99.90;;;;;;4904408;29;19923;-71
2022/11/29 03:26:47;;;;;;;;;;;7.60;99.90;;;;;;4924588;28;209417;-72
2022/11/29 03:29:13;;;;;;;;;;;7.50;99.90;;;;;;4941492;28;19947;-73
2022/11/29 03:31:46;;;;;;;;;;;7.50;99.90;;;;;;4853321;29;207514;-73
2022/11/29 03:34:12;;;;;;;;;;;7.50;99.90;;;;;;4912625;29;19923;-73
2022/11/29 03:36:46;;;;;;;;;;;7.40;99.90;;;;;;4857113;28;140174;-73
2022/11/29 03:39:17;;;;;;;;;;;7.40;99.90;;;;;;4914391;29;20440;-73
2022/11/29 03:41:48;;;;;;;;;;;7.50;99.90;;;;;;4874569;28;173760;-73
2022/11/29 03:44:18;;;;;;;;;;;7.40;99.90;;;;;;4917107;29;19924;-73
2022/11/29 03:46:47;;;;;;;;;;;7.40;99.90;;;;;;4867354;28;209583;-73
2022/11/29 03:49:25;;;;;;;;;;;7.40;99.90;;;;;;4902270;29;19933;-73
2022/11/29 03:52:00;;;;;;;;;;;7.40;99.90;;;;;;4874371;28;164521;-73
2022/11/29 03:54:36;;;;;;;;;;;7.30;99.90;;;;;;4926590;28;19924;-73
2022/11/29 03:57:02;;;;;;;;;;;7.30;99.90;;;;;;4880913;28;124614;-72
2022/11/29 03:59:28;;;;;;;;;;;7.20;99.90;;;;;;4912104;29;19931;-73
2022/11/29 04:02:09;;;;;;;;;;;7.20;99.90;;;;;;4863041;28;169770;-73
2022/11/29 04:04:47;;;;;;;;;;;7.20;99.90;;;;;;4927563;28;19950;-73
2022/11/29 04:07:32;;;;;;;;;;;7.20;99.90;;;;;;4919606;28;209213;-73
2022/11/29 04:10:08;;;;;;;;;;;7.20;99.90;;;;;;4984301;28;19922;-73
2022/11/29 04:12:33;;;;;;;;;;;7.20;99.90;;;;;;4955011;28;216164;-73
2022/11/29 04:14:59;;;;;;;;;;;7.20;99.90;;;;;;4987123;28;19958;-71
2022/11/29 04:17:48;;;;;;;;;;;7.20;99.90;;;;;;4957827;28;208307;-72
2022/11/29 04:20:20;;;;;;;;;;;7.20;99.90;;;;;;4997202;28;19930;-73
2022/11/29 04:22:58;;;;;;;;;;;7.20;99.90;;;;;;4963172;28;205865;-72
2022/11/29 04:25:53;;;;;;;;;;;7.20;99.90;;;;;;4978562;28;19949;-73
2022/11/29 04:28:22;;;;;;;;;;;7.20;99.90;;;;;;4952060;28;184728;-73
2022/11/29 04:31:00;;;;;;;;;;;7.20;99.90;;;;;;5005693;28;19922;-72
2022/11/29 04:33:45;;;;;;;;;;;7.20;99.90;;;;;;4973146;28;161984;-72
2022/11/29 04:36:40;;;;;;;;;;;7.20;99.90;;;;;;4997015;28;205877;-72
2022/11/29 04:39:13;;;;;;;;;;;7.20;99.90;;;;;;4888983;29;210767;-72
2022/11/29 04:41:39;;;;;;;;;;;7.20;99.90;;;;;;4893961;28;142659;-72
2022/11/29 04:44:08;;;;;;;;;;;7.20;99.90;;;;;;4930683;29;20408;-71
2022/11/29 04:46:34;;;;;;;;;;;7.20;99.90;;;;;;4914482;28;198576;-72
2022/11/29 04:49:01;;;;;;;;;;;7.20;99.90;;;;;;4915884;29;19922;-72
2022/11/29 04:51:35;;;;;;;;;;;7.20;99.90;;;;;;4886972;28;200845;-72
2022/11/29 04:54:19;;;;;;;;;;;7.20;99.90;;;;;;4951327;28;19923;-72
2022/11/29 04:56:47;;;;;;;;;;;7.20;99.90;;;;;;4881386;28;207998;-73
2022/11/29 04:59:24;;;;;;;;;;;7.20;99.90;;;;;;4914619;29;19927;-72
2022/11/29 05:01:50;;;;;;;;;;;7.20;99.90;;;;;;4855462;29;215965;-72
2022/11/29 05:04:31;;;;;;;;;;;7.20;99.90;;;;;;4910300;29;19939;-72
2022/11/29 05:07:09;;;;;;;;;;;7.20;99.90;;;;;;4885186;28;94615;-72
2022/11/29 05:09:54;;;;;;;;;;;7.20;99.90;;;;;;4941522;28;19953;-72
2022/11/29 05:12:25;;;;;;;;;;;7.20;99.90;;;;;;4893196;28;211412;-73
2022/11/29 05:14:56;;;;;;;;;;;7.20;99.90;;;;;;4920304;28;19922;-72
2022/11/29 05:17:41;;;;;;;;;;;7.10;99.90;;;;;;4968208;28;190087;-72
2022/11/29 05:20:07;;;;;;;;;;;7.20;99.90;;;;;;4976753;28;20327;-72
2022/11/29 05:22:38;;;;;;;;;;;7.20;99.90;;;;;;4946727;28;206647;-72
2022/11/29 05:25:23;;;;;;;;;;;7.10;99.90;;;;;;4997854;28;19926;-72
2022/11/29 05:27:54;;;;;;;;;;;7.10;99.90;;;;;;4957733;28;213015;-72
2022/11/29 05:30:22;;;;;;;;;;;7.10;99.90;;;;;;4993943;28;19933;-71
2022/11/29 05:33:03;;;;;;;;;;;7.00;99.90;;;;;;4960540;28;209668;-72
2022/11/29 05:35:35;;;;;;;;;;;7.10;99.90;;;;;;4980698;28;19926;-72
2022/11/29 05:38:07;;;;;;;;;;;7.10;99.90;;;;;;4962609;28;206340;-71
2022/11/29 05:40:55;;;;;;;;;;;7.00;99.90;;;;;;5003060;28;19933;-72
2022/11/29 05:43:24;;;;;;;;;;;7.00;99.90;;;;;;4939596;28;211509;-72
2022/11/29 05:46:02;;;;;;;;;;;7.00;99.90;;;;;;5005895;28;19933;-72
2022/11/29 05:48:33;;;;;;;;;;;7.00;99.90;;;;;;4957592;28;161217;-72
2022/11/29 05:51:18;;;;;;;;;;;7.00;99.90;;;;;;5004084;28;19958;-71
2022/11/29 05:53:53;;;;;;;;;;;7.00;99.90;;;;;;4904910;28;212772;-73
2022/11/29 05:56:22;;;;;;;;;;;7.00;99.90;;;;;;4954217;28;206683;-73
2022/11/29 05:58:51;;;;;;;;;;;7.00;99.90;;;;;;4995031;28;19937;-73
2022/11/29 06:01:19;;;;;;;;;;;7.00;99.90;;;;;;4985139;28;218517;-72
2022/11/29 06:04:04;;;;;;;;;;;7.00;99.90;;;;;;4969268;28;19926;-72
2022/11/29 06:06:39;;;;;;;;;;;7.00;99.90;;;;;;4919801;28;218266;-72
2022/11/29 06:09:18;;;;;;;;;;;7.00;99.90;;;;;;4980751;28;19926;-74
2022/11/29 06:11:47;;;;;;;;;;;6.90;99.90;;;;;;4925472;28;215462;-72
2022/11/29 06:14:33;;;;;;;;;;;6.90;99.90;;;;;;4989101;28;19930;-72
2022/11/29 06:17:00;;;;;;;;;;;6.90;99.90;;;;;;4954287;28;217959;-72
2022/11/29 06:19:45;;;;;;;;;;;6.90;99.90;;;;;;4974307;28;20418;-72
2022/11/29 06:22:11;;;;;;;;;;;7.00;99.90;;;;;;4963319;28;219443;-72
2022/11/29 06:24:43;;;;;;;;;;;7.00;99.90;;;;;;4979509;28;20431;-72
2022/11/29 06:27:21;;;;;;;;;;;6.90;99.90;;;;;;4969290;28;209071;-72
2022/11/29 06:30:10;;;;;;;;;;;6.90;99.90;;;;;;4988828;28;19995;-72
2022/11/29 06:32:53;;;;;;;;;;;6.90;99.90;;;;;;4911876;28;142326;-73
2022/11/29 06:35:36;;;;;;;;;;;6.90;99.90;;;;;;4945754;28;19923;-71
2022/11/29 06:38:09;;;;;;;;;;;6.90;99.90;;;;;;4922987;28;206908;-72
2022/11/29 06:40:35;;;;;;;;;;;6.90;99.90;;;;;;4951344;28;20431;-73
2022/11/29 06:43:01;;;;;;;;;;;6.90;99.90;;;;;;4893053;28;214070;-73
2022/11/29 06:45:27;;;;;;;;;;;6.90;99.90;;;;;;4953832;28;19933;-73
2022/11/29 06:47:59;;;;;;;;;;;6.90;99.90;;;;;;4909782;28;210152;-73
2022/11/29 06:50:43;;;;;;;;;;;6.90;99.90;;;;;;4964240;28;19923;-73
2022/11/29 06:53:15;;;;;;;;;;;6.90;99.90;;;;;;4911682;28;206437;-73
2022/11/29 06:55:44;;;;;;;;;;;6.90;99.90;;;;;;4969794;28;20415;-72
2022/11/29 06:58:28;;;;;;;;;;;6.90;99.90;;;;;;4922100;28;162794;-72
2022/11/29 07:00:57;;;;;;;;;;;6.90;99.90;;;;;;4949947;28;19926;-72
2022/11/29 07:03:29;;;;;;;;;;;6.90;99.90;;;;;;4915440;28;155304;-73
2022/11/29 07:05:56;;;;;;;;;;;6.90;99.90;;;;;;4965391;28;20489;-74
2022/11/29 07:08:22;;;;;;;;;;;6.90;99.90;;;;;;4905397;28;129825;-74
2022/11/29 07:10:50;;;;;;;;;;;6.90;99.90;;;;;;4971547;28;19938;-72
2022/11/29 07:13:16;;;;;;;;;;;6.90;99.90;;;;;;4980789;28;207136;-73
2022/11/29 07:16:03;;;;;;;;;;;6.90;99.90;;;;;;5008443;28;19941;-73
2022/11/29 07:18:47;;;;;;;;;;;6.90;99.90;;;;;;4925317;28;205156;-73
2022/11/29 07:21:32;;;;;;;;;;;6.90;99.90;;;;;;4939966;28;210127;-72
2022/11/29 07:24:16;;;;;;;;;;;6.80;99.90;;;;;;4896726;28;205762;-72
2022/11/29 07:26:58;;;;;;;;;;;6.80;99.90;;;;;;4908151;28;145206;-72
2022/11/29 07:29:59;;;;;;;;;;;6.80;99.90;;;;;;4939877;28;19937;-73
2022/11/29 07:32:43;;;;;;;;;;;6.90;99.90;;;;;;4911898;28;209991;-73
2022/11/29 07:35:24;;;;;;;;;;;6.90;99.90;;;;;;4969848;28;19930;-73
2022/11/29 07:38:02;;;;;;;;;;;6.90;99.90;;;;;;4902496;28;205578;-73
2022/11/29 07:40:47;;;;;;;;;;;6.90;99.90;;;;;;4957558;28;19933;-73
2022/11/29 07:43:13;;;;;;;;;;;6.80;99.90;;;;;;4917350;28;206361;-72
2022/11/29 07:45:39;;;;;;;;;;;6.90;99.90;;;;;;4955578;28;20005;-72
2022/11/29 07:48:05;;;;;;;;;;;6.90;99.90;;;;;;4904718;28;166424;-73
2022/11/29 07:50:31;;;;;;;;;;;6.90;99.90;;;;;;4952985;28;19937;-73
2022/11/29 07:52:58;;;;;;;;;;;6.90;99.90;;;;;;4912465;28;134842;-73
2022/11/29 07:55:24;;;;;;;;;;;6.90;99.90;;;;;;4972485;28;20304;-73
2022/11/29 07:57:52;;;;;;;;;;;6.90;99.90;;;;;;4906104;28;211968;-74
2022/11/29 08:00:21;;;;;;;;;;;6.90;99.90;;;;;;4941630;28;19933;-73
2022/11/29 08:02:48;;;;;;;;;;;6.90;99.90;;;;;;4874151;28;263534;-73
2022/11/29 08:05:14;;;;;;;;;;;6.90;99.90;;;;;;4945722;28;19922;-74
2022/11/29 08:07:41;;;;;;;;;;;6.90;99.90;;;;;;4948088;28;210148;-74
2022/11/29 08:10:08;;;;;;;;;;;7.00;99.90;;;;;;4966532;28;19937;-72
2022/11/29 08:12:34;;;;;;;;;;;7.00;99.90;;;;;;4969542;28;194771;-73
2022/11/29 08:15:01;;;;;;;;;;;7.00;99.90;;;;;;4982596;28;19922;-72
2022/11/29 08:17:27;;;;;;;;;;;7.00;99.90;;;;;;4969903;28;208392;-72
2022/11/29 08:19:53;;;;;;;;;;;7.00;99.90;;;;;;4985132;28;19922;-73
2022/11/29 08:22:19;;;;;;;;;;;7.00;99.90;;;;;;4950557;28;206192;-73
2022/11/29 08:24:44;;;;;;;;;;;7.00;99.90;;;;;;5008534;28;19926;-73
2022/11/29 08:27:10;;;;;;;;;;;7.10;99.90;;;;;;4971146;28;204568;-72
2022/11/29 08:29:36;;;;;;;;;;;7.10;99.90;;;;;;4997899;28;19925;-73
2022/11/29 08:32:02;;;;;;;;;;;7.10;99.90;;;;;;4928943;28;214993;-73
2022/11/29 08:34:28;;;;;;;;;;;7.10;99.90;;;;;;4989708;28;19933;-72
2022/11/29 08:36:55;;;;;;;;;;;7.10;99.90;;;;;;4959711;28;169195;-72
2022/11/29 08:39:21;;;;;;;;;;;7.20;99.90;;;;;;4946599;28;19930;-73
2022/11/29 08:41:48;;;;;;;;;;;7.20;99.90;;;;;;4954717;28;151000;-73
2022/11/29 08:44:14;;;;;;;;;;;7.20;99.90;;;;;;4993923;28;19922;-73
2022/11/29 08:49:24;;;;;;;;;;;7.20;99.90;;;;;;4993366;28;19922;-73
2022/11/29 08:51:51;;;;;;;;;;;7.20;99.90;;;;;;4933028;28;209477;-73
2022/11/29 08:54:17;;;;;;;;;;;7.30;99.90;;;;;;5001375;28;19930;-73
2022/11/29 08:56:43;;;;;;;;;;;7.30;99.90;;;;;;4957802;28;207331;-74
2022/11/29 08:59:09;;;;;;;;;;;7.30;99.90;;;;;;4971719;28;19929;-73
2022/11/29 09:01:35;;;;;;;;;;;7.30;99.90;;;;;;4923924;28;222410;-73
2022/11/29 09:04:06;;;;;;;;;;;7.30;99.90;;;;;;4989213;28;19922;-74
2022/11/29 09:06:35;;;;;;;;;;;7.40;99.90;;;;;;4962459;28;205978;-73
2022/11/29 09:09:02;;;;;;;;;;;7.40;99.90;;;;;;4996717;28;19938;-73
2022/11/29 09:11:28;;;;;;;;;;;7.40;99.90;;;;;;4921933;28;210880;-73
2022/11/29 09:13:56;;;;;;;;;;;7.40;99.90;;;;;;5003382;28;19926;-73
2022/11/29 09:16:24;;;;;;;;;;;7.40;99.90;;;;;;4921310;28;249965;-73
2022/11/29 09:18:51;;;;;;;;;;;7.50;99.90;;;;;;5000477;28;19949;-73
2022/11/29 09:21:17;;;;;;;;;;;7.50;99.90;;;;;;4956119;28;205913;-73
2022/11/29 09:23:44;;;;;;;;;;;7.50;99.90;;;;;;4982035;28;19926;-73
2022/11/29 09:26:14;;;;;;;;;;;7.60;99.90;;;;;;5007835;28;19937;-74
2022/11/29 09:28:40;;;;;;;;;;;7.60;99.90;;;;;;4974004;28;160200;-73
2022/11/29 09:31:10;;;;;;;;;;;7.60;99.90;;;;;;4969413;28;20468;-73
2022/11/29 09:33:36;;;;;;;;;;;7.60;99.90;;;;;;4956568;28;162256;-74
2022/11/29 09:36:02;;;;;;;;;;;7.70;99.90;;;;;;5009831;28;19930;-73
2022/11/29 09:38:28;;;;;;;;;;;7.70;99.90;;;;;;4957598;28;196678;-73
2022/11/29 09:40:55;;;;;;;;;;;7.70;99.90;;;;;;4999162;28;20657;-72
2022/11/29 09:43:25;;;;;;;;;;;7.70;99.90;;;;;;4941139;28;202847;-73
2022/11/29 09:46:04;;;;;;;;;;;7.70;99.90;;;;;;4967968;28;19926;-73
2022/11/29 09:48:30;;;;;;;;;;;7.70;99.90;;;;;;4956524;28;206789;-73
2022/11/29 09:51:00;;;;;;;;;;;7.80;99.90;;;;;;4973889;28;20021;-74
2022/11/29 09:53:34;;;;;;;;;;;7.80;99.90;;;;;;4977311;28;206705;-73
2022/11/29 09:56:00;;;;;;;;;;;7.80;99.90;;;;;;5007329;28;19933;-73
2022/11/29 09:58:29;;;;;;;;;;;7.90;99.90;;;;;;4977846;28;206723;-73
2022/11/29 10:01:01;;;;;;;;;;;7.90;99.90;;;;;;5007033;28;19922;-72
2022/11/29 10:03:37;;;;;;;;;;;7.90;99.90;;;;;;4963151;28;206871;-73
2022/11/29 10:06:07;;;;;;;;;;;7.90;99.90;;;;;;5004117;28;19922;-73
2022/11/29 10:08:36;;;;;;;;;;;8.00;99.90;;;;;;4959305;28;199934;-73
2022/11/29 10:11:38;;;;;;;;;;;8.00;99.90;;;;;;4990933;28;19929;-74
2022/11/29 10:14:14;;;;;;;;;;;8.00;99.90;;;;;;4921906;28;204686;-74
2022/11/29 10:16:43;;;;;;;;;;;8.10;99.90;;;;;;4909552;28;168192;-73
2022/11/29 10:19:14;;;;;;;;;;;8.10;99.90;;;;;;4923714;28;19927;-74
2022/11/29 10:21:42;;;;;;;;;;;8.10;99.90;;;;;;4909735;28;135162;-73
2022/11/29 10:24:12;;;;;;;;;;;8.10;99.90;;;;;;4921186;29;19922;-73
2022/11/29 10:26:38;;;;;;;;;;;8.10;99.90;;;;;;4907175;28;205123;-73
2022/11/29 10:29:04;;;;;;;;;;;8.20;99.90;;;;;;4936894;28;19930;-73
2022/11/29 10:31:38;;;;;;;;;;;8.20;99.90;;;;;;4883727;28;208914;-74
2022/11/29 10:34:18;;;;;;;;;;;8.30;99.90;;;;;;4936003;28;20419;-73
2022/11/29 10:36:44;;;;;;;;;;;8.40;99.90;;;;;;4906200;28;197639;-73
2022/11/29 10:39:30;;;;;;;;;;;8.40;99.90;;;;;;4932061;28;19930;-73
2022/11/29 10:42:00;;;;;;;;;;;8.40;99.90;;;;;;4900990;28;205841;-74
2022/11/29 10:44:26;;;;;;;;;;;8.40;99.90;;;;;;4951941;28;19930;-73
2022/11/29 10:46:52;;;;;;;;;;;8.30;99.90;;;;;;4893653;28;210690;-73
2022/11/29 10:49:20;;;;;;;;;;;8.40;99.90;;;;;;4964807;28;19922;-73
2022/11/29 10:51:46;;;;;;;;;;;8.40;99.90;;;;;;4917551;28;215727;-73
2022/11/29 10:54:31;;;;;;;;;;;8.50;99.90;;;;;;5012267;28;20407;-74
2022/11/29 10:56:58;;;;;;;;;;;8.50;99.90;;;;;;4944079;28;209704;-74
2022/11/29 10:59:26;;;;;;;;;;;8.50;99.90;;;;;;4977838;28;19926;-74
2022/11/29 11:01:53;;;;;;;;;;;8.40;99.90;;;;;;4945344;28;149860;-74
2022/11/29 11:04:32;;;;;;;;;;;8.50;99.90;;;;;;5000563;28;19932;-74
2022/11/29 11:07:00;;;;;;;;;;;8.50;99.90;;;;;;4937957;28;202740;-73
2022/11/29 11:09:37;;;;;;;;;;;8.50;99.90;;;;;;4985932;28;19926;-74
2022/11/29 11:12:05;;;;;;;;;;;8.50;99.90;;;;;;4942691;28;207528;-74
2022/11/29 11:14:33;;;;;;;;;;;8.50;99.90;;;;;;4993336;28;19929;-74
2022/11/29 11:17:12;;;;;;;;;;;8.60;99.90;;;;;;4952916;28;209958;-73
2022/11/29 11:19:38;;;;;;;;;;;8.60;99.90;;;;;;4972539;28;19926;-73
2022/11/29 11:22:04;;;;;;;;;;;8.60;99.90;;;;;;4924250;28;207055;-74
2022/11/29 11:24:40;;;;;;;;;;;8.70;99.90;;;;;;4977000;28;19922;-73
2022/11/29 11:27:06;;;;;;;;;;;8.70;99.90;;;;;;4955594;28;207478;-73
2022/11/29 11:29:41;;;;;;;;;;;8.70;99.90;;;;;;4976399;28;19933;-74
2022/11/29 11:32:15;;;;;;;;;;;8.80;99.90;;;;;;4946185;28;209237;-75
2022/11/29 11:34:49;;;;;;;;;;;8.80;99.90;;;;;;5010670;28;19926;-75
2022/11/29 11:37:18;;;;;;;;;;;8.80;99.90;;;;;;4975317;28;176323;-74
2022/11/29 11:39:45;;;;;;;;;;;8.80;99.90;;;;;;5011968;28;19922;-75
2022/11/29 11:44:57;;;;;;;;;;;9.00;99.90;;;;;;4995159;28;19928;-75
2022/11/29 11:47:27;;;;;;;;;;;9.00;99.90;;;;;;4942857;28;214610;-76
2022/11/29 11:49:54;;;;;;;;;;;9.00;99.90;;;;;;4973194;28;19927;-75
2022/11/29 11:52:26;;;;;;;;;;;9.10;99.90;;;;;;4913764;28;224387;-75
2022/11/29 11:54:53;;;;;;;;;;;9.10;99.90;;;;;;4965935;28;19926;-74
2022/11/29 11:57:20;;;;;;;;;;;9.20;99.90;;;;;;4941571;28;138545;-74
2022/11/29 11:59:47;;;;;;;;;;;9.20;99.90;;;;;;4962985;28;19927;-75
2022/11/29 12:02:35;;;;;;;;;;;9.20;99.90;;;;;;4941556;28;153100;-75
2022/11/29 12:05:02;;;;;;;;;;;9.20;99.90;;;;;;4989619;28;19929;-75
2022/11/29 12:07:44;;;;;;;;;;;9.30;99.90;;;;;;4957194;28;209241;-75
2022/11/29 12:10:21;;;;;;;;;;;9.30;99.90;;;;;;4982326;28;19984;-76
2022/11/29 12:12:48;;;;;;;;;;;9.30;99.90;;;;;;4963527;28;221387;-75
2022/11/29 12:15:20;;;;;;;;;;;9.40;99.90;;;;;;4988726;28;19930;-74
2022/11/29 12:17:56;;;;;;;;;;;9.40;99.90;;;;;;4963636;28;208383;-75
2022/11/29 12:20:27;;;;;;;;;;;9.40;99.90;;;;;;4979775;28;19926;-75
2022/11/29 12:23:12;;;;;;;;;;;9.50;99.90;;;;;;4960234;28;205419;-75
2022/11/29 12:25:47;;;;;;;;;;;9.50;99.90;;;;;;5019106;28;19926;-74
2022/11/29 12:28:14;;;;;;;;;;;9.50;99.90;;;;;;4980669;28;141466;-73
2022/11/29 12:30:45;;;;;;;;;;;9.50;99.90;;;;;;4979171;28;19933;-74
2022/11/29 12:33:25;;;;;;;;;;;9.50;99.90;;;;;;4966215;28;205013;-73
2022/11/29 12:36:00;;;;;;;;;;;9.50;99.90;;;;;;5010907;28;19926;-73
2022/11/29 12:38:32;;;;;;;;;;;9.60;99.90;;;;;;4981061;28;206884;-73
2022/11/29 12:41:24;;;;;;;;;;;9.50;99.90;;;;;;4999494;28;19929;-73
2022/11/29 12:44:04;;;;;;;;;;;9.50;99.90;;;;;;4981236;28;163997;-73
2022/11/29 12:46:30;;;;;;;;;;;9.50;99.90;;;;;;4961425;28;206292;-73
2022/11/29 12:48:59;;;;;;;;;;;9.50;99.90;;;;;;4976181;28;19926;-72
2022/11/29 12:51:34;;;;;;;;;;;9.60;99.90;;;;;;4943419;28;209231;-73
2022/11/29 12:54:09;;;;;;;;;;;9.60;99.90;;;;;;4997253;28;19929;-73
2022/11/29 12:56:38;;;;;;;;;;;9.60;99.90;;;;;;4968728;28;208512;-73
2022/11/29 12:59:23;;;;;;;;;;;9.50;99.90;;;;;;5023965;28;19934;-73
2022/11/29 13:02:01;;;;;;;;;;;9.60;99.90;;;;;;4954363;28;188664;-74
2022/11/29 13:04:35;;;;;;;;;;;9.60;99.90;;;;;;5008748;28;19933;-73
2022/11/29 13:07:01;;;;;;;;;;;9.60;99.90;;;;;;4942814;28;207468;-72
2022/11/29 13:09:27;;;;;;;;;;;9.60;99.90;;;;;;4994072;28;20372;-74
2022/11/29 13:11:59;;;;;;;;;;;9.50;99.90;;;;;;4956679;28;207936;-73
2022/11/29 13:14:31;;;;;;;;;;;9.50;99.90;;;;;;5012541;28;19929;-73
2022/11/29 13:17:00;;;;;;;;;;;9.40;99.90;;;;;;4967212;28;130177;-73
2022/11/29 13:19:35;;;;;;;;;;;9.40;99.90;;;;;;5019996;28;19952;-73
2022/11/29 13:22:20;;;;;;;;;;;9.40;99.90;;;;;;4967227;28;205128;-74
2022/11/29 13:24:58;;;;;;;;;;;9.30;99.90;;;;;;4984352;28;19922;-73
2022/11/29 13:27:27;;;;;;;;;;;9.30;99.90;;;;;;4957951;28;207406;-74
2022/11/29 13:29:53;;;;;;;;;;;9.30;99.90;;;;;;4998203;28;19930;-74
2022/11/29 13:32:26;;;;;;;;;;;9.30;99.90;;;;;;4965856;28;207515;-74
2022/11/29 13:34:54;;;;;;;;;;;9.30;99.90;;;;;;4996040;28;19937;-73
2022/11/29 13:37:25;;;;;;;;;;;9.40;99.90;;;;;;4957087;28;210042;-72
2022/11/29 13:39:54;;;;;;;;;;;9.30;99.90;;;;;;4990463;28;19933;-72
2022/11/29 13:42:23;;;;;;;;;;;9.30;99.90;;;;;;4926931;28;209022;-73
2022/11/29 13:44:57;;;;;;;;;;;9.30;99.90;;;;;;4972022;28;19922;-73
2022/11/29 13:47:23;;;;;;;;;;;9.30;99.90;;;;;;4927422;28;215698;-73
2022/11/29 13:49:53;;;;;;;;;;;9.30;99.90;;;;;;4969720;28;19938;-74
2022/11/29 13:52:34;;;;;;;;;;;9.30;99.90;;;;;;4940583;28;206470;-74
2022/11/29 13:55:27;;;;;;;;;;;9.30;99.90;;;;;;5002309;28;19925;-76
2022/11/29 13:58:04;;;;;;;;;;;9.30;99.90;;;;;;4965157;28;202408;-75
2022/11/29 14:00:47;;;;;;;;;;;9.30;99.90;;;;;;4973993;28;19922;-76
2022/11/29 14:03:22;;;;;;;;;;;9.20;99.90;;;;;;4925677;28;228345;-75
2022/11/29 14:05:52;;;;;;;;;;;9.20;99.90;;;;;;4971880;28;19922;-76
2022/11/29 14:08:27;;;;;;;;;;;9.10;99.90;;;;;;4979244;28;185241;-75
2022/11/29 14:10:55;;;;;;;;;;;9.10;99.90;;;;;;5017423;28;19937;-75
2022/11/29 14:13:23;;;;;;;;;;;9.00;99.90;;;;;;4952885;28;204641;-75
2022/11/29 14:15:53;;;;;;;;;;;9.00;99.90;;;;;;4970097;28;19933;-75
2022/11/29 14:18:41;;;;;;;;;;;9.00;99.90;;;;;;4988376;28;213925;-76
2022/11/29 14:21:07;;;;;;;;;;;8.90;99.90;;;;;;5038011;28;19929;-75
2022/11/29 14:23:34;;;;;;;;;;;9.00;99.90;;;;;;4978273;28;248489;-75
2022/11/29 14:26:00;;;;;;;;;;;8.90;99.90;;;;;;5020445;28;19922;-76
2022/11/29 14:28:27;;;;;;;;;;;8.80;99.90;;;;;;4971783;28;222551;-76
2022/11/29 14:31:00;;;;;;;;;;;8.70;99.90;;;;;;4992866;28;19926;-75
2022/11/29 14:33:51;;;;;;;;;;;8.70;99.90;;;;;;4987206;28;222446;-76
2022/11/29 14:36:17;;;;;;;;;;;8.70;99.90;;;;;;5003018;28;220513;-75
2022/11/29 14:38:52;;;;;;;;;;;8.70;99.90;;;;;;5017339;28;19969;-75
2022/11/29 14:41:37;;;;;;;;;;;8.60;99.90;;;;;;4960885;28;226638;-76
2022/11/29 14:44:17;;;;;;;;;;;8.50;99.90;;;;;;4970843;28;20474;-76
2022/11/29 14:46:43;;;;;;;;;;;8.50;99.90;;;;;;4962024;28;163501;-75
2022/11/29 14:49:19;;;;;;;;;;;8.50;99.90;;;;;;5020815;28;19929;-76
2022/11/29 14:52:04;;;;;;;;;;;8.40;99.90;;;;;;4951031;28;215556;-76
2022/11/29 14:54:31;;;;;;;;;;;8.40;99.90;;;;;;5019777;28;19925;-75
2022/11/29 14:57:17;;;;;;;;;;;8.30;99.90;;;;;;4983217;28;169670;-75